Time;durP1;ratioP1;P1;durP2;ratioP2;P2;SDS_P1;SDS_P2;PMS_P1;PMS_P2;Temp;Humidity;BMP_temperature;BMP_pressure;BME280_temperature;BME280_humidity;BME280_pressure;Samples;Min_cycle;Max_cycle;Signal;HPM_P1;HPM_P2
2022/01/20 00:05:08;;;;;;;13.50;6.90;;;;;;;4.01;68.81;100512.53;10472663;28;20056;-69
2022/01/20 00:26:15;;;;;;;11.80;7.70;;;;;;;4.31;68.18;100527.38;10471525;28;20056;-69
2022/01/20 00:31:43;;;;;;;12.88;7.20;;;;;;;4.06;68.65;100545.22;10471906;28;20064;-68
2022/01/20 00:42:06;;;;;;;24.88;11.75;;;;;;;4.05;68.93;100529.75;10470013;28;20477;-69
2022/01/20 00:47:07;;;;;;;28.10;11.68;;;;;;;4.26;68.36;100522.28;10469620;28;20058;-69
2022/01/20 00:52:09;;;;;;;32.00;12.30;;;;;;;4.30;68.06;100528.22;10470685;28;20135;-69
2022/01/20 00:57:12;;;;;;;36.47;12.77;;;;;;;4.32;68.01;100523.88;10470463;28;20135;-68
2022/01/20 01:02:14;;;;;;;30.42;11.45;;;;;;;4.19;67.90;100531.06;10451325;28;20123;-69
2022/01/20 01:12:32;;;;;;;37.42;12.20;;;;;;;3.98;68.13;100528.16;10469233;28;20048;-69
2022/01/20 01:22:55;;;;;;;37.43;12.60;;;;;;;3.74;68.22;100534.72;10468731;28;20048;-68
2022/01/20 01:27:59;;;;;;;34.00;10.90;;;;;;;3.63;68.20;100541.88;10450391;28;20483;-68
2022/01/20 01:33:00;;;;;;;34.58;11.57;;;;;;;3.59;68.40;100556.59;10468942;28;20054;-68
2022/01/20 01:43:13;;;;;;;31.60;9.90;;;;;;;3.56;68.64;100587.69;10466549;28;20128;-68
2022/01/20 01:48:15;;;;;;;26.77;7.43;;;;;;;3.67;68.03;100587.47;10450237;28;20067;-68
2022/01/20 01:53:17;;;;;;;22.40;7.30;;;;;;;3.85;67.64;100590.53;10467764;28;20408;-68
2022/01/20 01:58:19;;;;;;;21.17;7.32;;;;;;;3.73;67.53;100595.94;10467162;28;20122;-68
2022/01/20 02:03:21;;;;;;;28.52;7.88;;;;;;;3.61;67.76;100583.28;10449463;28;20147;-68
2022/01/20 02:08:33;;;;;;;31.98;9.20;;;;;;;3.39;68.25;100592.38;10466959;28;20063;-68
2022/01/20 02:18:55;;;;;;;30.17;9.90;;;;;;;3.22;68.21;100599.59;10465448;28;20466;-68
2022/01/20 02:23:57;;;;;;;27.83;10.27;;;;;;;3.15;68.16;100587.69;10466262;28;20496;-68
2022/01/20 02:28:58;;;;;;;30.45;10.13;;;;;;;3.17;68.28;100592.81;10465625;28;20045;-68
2022/01/20 02:34:00;;;;;;;35.60;9.68;;;;;;;3.12;68.21;100610.13;10465700;28;20301;-68
2022/01/20 02:39:22;;;;;;;31.58;9.40;;;;;;;3.15;67.83;100608.38;10448765;28;20139;-68
2022/01/20 02:49:47;;;;;;;28.73;9.35;;;;;;;3.00;68.06;100599.16;10466389;28;19927;-68
2022/01/20 02:54:50;;;;;;;28.65;10.00;;;;;;;3.14;68.04;100598.03;10466884;28;20141;-68
2022/01/20 02:59:52;;;;;;;32.63;10.23;;;;;;;3.23;67.54;100592.69;10465489;28;20127;-68
2022/01/20 03:04:54;;;;;;;28.88;9.77;;;;;;;3.22;67.20;100578.06;10473238;28;20147;-68
2022/01/20 03:09:55;;;;;;;39.45;10.02;;;;;;;3.07;67.40;100574.88;10473317;28;20527;-68
2022/01/20 03:14:57;;;;;;;29.13;8.98;;;;;;;2.92;67.74;100582.94;10474152;28;20159;-68
2022/01/20 03:19:59;;;;;;;31.05;9.32;;;;;;;2.80;67.89;100595.22;10472773;28;20139;-68
2022/01/20 03:25:01;;;;;;;27.10;8.65;;;;;;;2.76;67.89;100597.03;10472873;28;20147;-68
2022/01/20 03:30:04;;;;;;;30.83;8.90;;;;;;;2.71;68.05;100597.94;10478495;28;20045;-68
2022/01/20 03:35:09;;;;;;;33.88;8.68;;;;;;;2.81;68.06;100590.03;10463444;28;20128;-68
2022/01/20 03:40:11;;;;;;;27.73;8.48;;;;;;;2.69;68.83;100592.81;10480395;28;20168;-68
2022/01/20 03:45:13;;;;;;;30.98;8.35;;;;;;;2.87;68.25;100579.56;10463618;28;20159;-68
2022/01/20 03:55:35;;;;;;;34.35;8.73;;;;;;;2.93;68.35;100581.19;10479554;28;20143;-68
2022/01/20 04:00:37;;;;;;;33.53;8.50;;;;;;;3.03;68.24;100572.38;10460545;28;20139;-68
2022/01/20 04:05:50;;;;;;;34.53;9.13;;;;;;;3.16;68.15;100568.69;10474950;28;20084;-68
2022/01/20 04:10:53;;;;;;;33.13;9.20;;;;;;;3.25;68.05;100560.78;10472716;28;20136;-68
2022/01/20 04:15:59;;;;;;;35.75;7.63;;;;;;;3.27;67.95;100550.41;10472499;28;20139;-68
2022/01/20 04:21:00;;;;;;;43.80;8.57;;;;;;;3.31;68.13;100559.78;10471712;28;20060;-68
2022/01/20 04:26:02;;;;;;;30.77;7.72;;;;;;;3.57;67.90;100557.50;10472087;28;20155;-68
2022/01/20 04:31:04;;;;;;;32.65;8.35;;;;;;;3.56;67.73;100540.28;10472227;28;20064;-68
2022/01/20 04:36:07;;;;;;;33.80;7.82;;;;;;;3.60;67.80;100547.94;10472080;28;20071;-68
2022/01/20 04:41:09;;;;;;;37.05;7.22;;;;;;;3.65;67.95;100540.09;10453525;28;20076;-68
2022/01/20 04:46:51;;;;;;;33.92;7.25;;;;;;;3.67;67.81;100535.72;10471320;28;20067;-68
2022/01/20 04:57:06;;;;;;;34.53;6.25;;;;;;;3.69;67.86;100536.56;10471162;28;20062;-68
2022/01/20 05:02:08;;;;;;;28.52;5.72;;;;;;;3.76;67.65;100559.66;10470809;28;20118;-67
2022/01/20 05:07:17;;;;;;;26.10;5.32;;;;;;;3.79;67.51;100538.91;10452884;28;20393;-68
2022/01/20 05:12:25;;;;;;;19.25;4.07;;;;;;;3.68;67.32;100543.44;10470623;28;20053;-67
2022/01/20 05:17:26;;;;;;;20.67;4.72;;;;;;;3.74;66.95;100540.72;10470201;28;20519;-67
2022/01/20 05:22:28;;;;;;;32.80;12.18;;;;;;;3.77;66.85;100534.66;10469759;28;20080;-67
2022/01/20 05:27:30;;;;;;;48.78;18.17;;;;;;;3.74;66.59;100545.91;10452132;28;20867;-67
2022/01/20 05:32:32;;;;;;;21.73;4.45;;;;;;;3.88;66.55;100550.81;10468102;28;20524;-67
2022/01/20 05:37:33;;;;;;;24.60;4.35;;;;;;;3.91;66.27;100547.28;10451753;28;20055;-67
2022/01/20 05:42:36;;;;;;;16.70;4.20;;;;;;;3.98;66.08;100548.88;10468684;28;20055;-67
2022/01/20 05:47:44;;;;;;;20.48;4.65;;;;;;;3.92;66.17;100551.59;10469236;28;20095;-67
2022/01/20 05:52:46;;;;;;;19.48;4.47;;;;;;;3.90;66.37;100546.47;10451371;28;20054;-67
2022/01/20 05:57:48;;;;;;;22.60;6.05;;;;;;;3.88;66.01;100543.06;10451224;28;20136;-67
2022/01/20 06:08:11;;;;;;;;;;;;;;;3.61;65.98;100534.16;10469215;28;20516;-67
2022/01/20 06:13:13;;;;;;;21.40;4.47;;;;;;;3.85;65.86;100549.16;10467829;28;20443;-67
2022/01/20 06:18:15;;;;;;;24.52;4.47;;;;;;;3.84;65.56;100531.06;10467147;28;20057;-67
2022/01/20 06:23:19;;;;;;;22.58;3.55;;;;;;;3.77;65.39;100535.50;10468327;28;20135;-67
2022/01/20 06:28:21;;;;;;;20.13;3.17;;;;;;;3.76;65.39;100530.38;10467795;28;20881;-67
2022/01/20 06:33:23;;;;;;;15.35;3.95;;;;;;;3.84;65.50;100550.03;10466388;28;20561;-67
2022/01/20 06:38:25;;;;;;;18.80;3.17;;;;;;;3.87;65.63;100564.63;10450567;28;20212;-67
2022/01/20 06:43:28;;;;;;;16.35;3.10;;;;;;;3.96;65.68;100567.03;10467488;28;20219;-67
2022/01/20 06:48:30;;;;;;;14.73;3.25;;;;;;;3.88;65.80;100587.03;10466536;28;20552;-67
2022/01/20 06:53:32;;;;;;;11.75;2.90;;;;;;;3.72;66.25;100577.88;10466619;28;20106;-67
2022/01/20 06:58:33;;;;;;;21.33;4.53;;;;;;;3.75;66.43;100583.84;10467398;28;20258;-67
2022/01/20 07:03:35;;;;;;;20.20;3.83;;;;;;;3.61;66.39;100585.88;10470648;28;20705;-67
2022/01/20 07:08:37;;;;;;;13.30;3.42;;;;;;;3.62;66.54;100587.56;10458346;28;20854;-68
2022/01/20 07:13:39;;;;;;;18.23;3.70;;;;;;;3.63;66.63;100602.22;10475183;28;20572;-68
2022/01/20 07:18:40;;;;;;;19.88;3.42;;;;;;;3.54;66.82;100614.44;10457016;28;20056;-68
2022/01/20 07:23:42;;;;;;;13.10;3.00;;;;;;;3.52;67.04;100642.06;10473457;28;20581;-68
2022/01/20 07:28:44;;;;;;;15.07;3.05;;;;;;;3.51;66.90;100650.72;10474314;28;20060;-68
2022/01/20 07:33:46;;;;;;;11.45;3.40;;;;;;;3.37;66.86;100642.41;10474716;28;20071;-67
2022/01/20 07:38:48;;;;;;;14.23;3.42;;;;;;;3.43;66.61;100637.09;10473216;28;20631;-68
2022/01/20 07:43:50;;;;;;;14.27;3.58;;;;;;;3.50;66.73;100649.88;10473864;28;20049;-67
2022/01/20 07:48:52;;;;;;;13.93;3.80;;;;;;;3.58;66.34;100662.66;10473336;28;20060;-68
2022/01/20 07:53:53;;;;;;;13.52;4.18;;;;;;;3.64;66.33;100684.06;10472949;28;20294;-67
2022/01/20 07:58:55;;;;;;;12.52;4.10;;;;;;;3.57;66.58;100710.09;10456274;28;20078;-67
2022/01/20 08:03:57;;;;;;;11.90;4.55;;;;;;;3.53;66.91;100752.41;10473986;28;20143;-67
2022/01/20 08:08:59;;;;;;;12.77;4.28;;;;;;;3.42;66.63;100750.00;10473160;28;20064;-67
2022/01/20 08:14:01;;;;;;;13.38;3.67;;;;;;;3.40;66.15;100749.19;10470584;28;20546;-67
2022/01/20 08:19:03;;;;;;;10.27;3.38;;;;;;;3.44;65.48;100742.22;10472328;28;20603;-67
2022/01/20 08:24:05;;;;;;;12.27;3.50;;;;;;;3.49;64.84;100745.59;10473027;28;20160;-67
2022/01/20 08:29:06;;;;;;;12.35;3.33;;;;;;;3.52;64.50;100771.38;10472132;28;20052;-67
2022/01/20 08:34:08;;;;;;;11.40;3.45;;;;;;;3.48;63.95;100770.59;10471377;28;20191;-67
2022/01/20 08:44:25;;;;;;;13.45;3.30;;;;;;;3.58;62.58;100768.69;10471238;28;20072;-67
2022/01/20 08:49:28;;;;;;;10.95;3.60;;;;;;;3.73;62.16;100765.84;10471745;28;20052;-68
2022/01/20 08:54:30;;;;;;;13.50;3.25;;;;;;;3.93;61.69;100771.50;10471921;28;20561;-68
2022/01/20 08:59:32;;;;;;;10.63;3.22;;;;;;;3.95;61.89;100766.28;10470926;28;20053;-68
2022/01/20 09:04:35;;;;;;;12.93;3.45;;;;;;;4.07;60.85;100782.44;10471715;28;20485;-68
2022/01/20 09:09:42;;;;;;;17.00;3.55;;;;;;;4.27;60.80;100795.84;10452740;28;20141;-68
2022/01/20 09:20:06;;;;;;;10.88;2.80;;;;;;;4.66;60.41;100810.53;10470620;28;20139;-67
2022/01/20 09:25:08;;;;;;;18.48;3.70;;;;;;;4.74;59.53;100802.59;10469431;28;20053;-67
2022/01/20 09:30:18;;;;;;;15.05;3.28;;;;;;;4.67;59.48;100807.09;10470018;28;20060;-68
2022/01/20 09:35:20;;;;;;;13.02;3.50;;;;;;;4.50;59.52;100814.34;10470247;28;20529;-67
2022/01/20 09:40:21;;;;;;;15.02;3.55;;;;;;;4.55;59.65;100815.13;10469526;28;20150;-67
2022/01/20 09:45:24;;;;;;;16.58;3.63;;;;;;;4.37;58.53;100820.66;10470174;28;20745;-67
2022/01/20 09:50:26;;;;;;;17.65;3.50;;;;;;;4.16;59.25;100839.22;10469135;28;20566;-67
2022/01/20 09:55:30;;;;;;;17.75;3.67;;;;;;;4.20;59.31;100838.28;10469295;28;20052;-67
2022/01/20 10:00:33;;;;;;;18.55;3.53;;;;;;;3.98;58.65;100856.84;10451098;28;20048;-67
2022/01/20 10:05:47;;;;;;;15.05;3.72;;;;;;;4.01;57.38;100875.72;10450201;28;20052;-67
2022/01/20 10:10:56;;;;;;;11.85;3.10;;;;;;;4.02;57.79;100881.78;10468337;28;20140;-67
2022/01/20 10:16:00;;;;;;;14.93;2.85;;;;;;;4.11;58.28;100887.63;10450523;28;20401;-67
2022/01/20 10:21:05;;;;;;;17.60;3.53;;;;;;;4.09;58.12;100881.63;10468201;28;20147;-67
2022/01/20 10:26:20;;;;;;;15.55;3.17;;;;;;;3.75;57.02;100888.25;10449476;28;20070;-68
2022/01/20 10:31:33;;;;;;;12.10;3.42;;;;;;;3.87;56.24;100888.06;10447376;28;20393;-68
2022/01/20 10:36:40;;;;;;;8.88;2.42;;;;;;;3.84;56.02;100872.63;10448496;28;20139;-68
2022/01/20 10:41:41;;;;;;;15.73;3.33;;;;;;;4.00;55.59;100883.53;10449769;28;20151;-67
2022/01/20 10:46:48;;;;;;;13.75;2.55;;;;;;;3.98;54.28;100875.81;10446443;28;20104;-68
2022/01/20 10:52:03;;;;;;;11.30;2.42;;;;;;;4.07;52.67;100870.44;10465370;28;20063;-68
2022/01/20 10:57:07;;;;;;;13.18;2.97;;;;;;;4.35;55.07;100876.81;10467487;28;21020;-68
2022/01/20 11:02:10;;;;;;;15.63;3.17;;;;;;;4.20;53.11;100864.16;10463331;28;20475;-67
2022/01/20 11:07:12;;;;;;;16.27;3.05;;;;;;;4.56;54.54;100854.81;10465622;28;20421;-68
2022/01/20 11:12:16;;;;;;;18.75;2.92;;;;;;;5.08;53.47;100849.34;10465775;28;20084;-67
2022/01/20 11:17:26;;;;;;;12.18;2.70;;;;;;;5.11;53.21;100847.53;10466997;28;20080;-68
2022/01/20 11:22:28;;;;;;;15.00;2.83;;;;;;;4.85;54.15;100852.47;10460890;28;20068;-67
2022/01/20 11:27:42;;;;;;;14.18;2.65;;;;;;;4.83;52.33;100837.81;10466653;28;20088;-68
2022/01/20 11:32:57;;;;;;;7.10;2.33;;;;;;;4.91;51.97;100848.88;10446307;28;20484;-68
2022/01/20 11:38:00;;;;;;;10.85;2.53;;;;;;;4.65;52.27;100844.28;10465243;28;20048;-68
2022/01/20 11:43:07;;;;;;;13.32;2.85;;;;;;;4.42;52.14;100847.31;10466121;28;20058;-64
2022/01/20 11:48:23;;;;;;;10.85;2.80;;;;;;;4.13;54.61;100880.69;10448261;28;20079;-64
2022/01/20 11:53:25;;;;;;;14.45;3.08;;;;;;;3.58;57.58;100918.69;10473129;28;20558;-64
2022/01/20 11:58:27;;;;;;;16.73;3.38;;;;;;;3.20;58.83;100946.84;10473600;28;20171;-64
2022/01/20 12:03:29;;;;;;;10.63;2.65;;;;;;;2.56;60.27;100911.50;10470403;28;20057;-65
2022/01/20 12:08:31;;;;;;;14.32;2.50;;;;;;;2.77;60.03;100911.25;10470246;28;20057;-65
2022/01/20 12:13:44;;;;;;;12.10;2.28;;;;;;;2.83;59.77;100898.25;10455237;28;20083;-65
2022/01/20 12:18:53;;;;;;;13.63;2.70;;;;;;;2.68;59.14;100895.84;10472315;28;20429;-65
2022/01/20 12:23:55;;;;;;;13.25;2.60;;;;;;;2.67;59.83;100895.88;10472828;28;20147;-64
2022/01/20 12:29:06;;;;;;;9.90;2.30;;;;;;;3.05;59.08;100903.97;10454254;28;20091;-64
2022/01/20 12:34:11;;;;;;;13.23;2.92;;;;;;;3.06;59.50;100892.78;10461583;28;20052;-65
2022/01/20 12:39:32;;;;;;;13.35;2.50;;;;;;;3.57;58.88;100901.47;10450408;28;20141;-65
2022/01/20 12:44:54;;;;;;;12.90;2.70;;;;;;;3.85;58.09;100892.41;10467566;28;20412;-65
2022/01/20 12:49:58;;;;;;;12.75;2.72;;;;;;;4.08;58.09;100881.66;10467446;28;20059;-65
2022/01/20 12:55:00;;;;;;;10.77;2.50;;;;;;;4.08;57.42;100867.00;10469163;28;20899;-65
2022/01/20 13:00:07;;;;;;;14.10;3.35;;;;;;;3.88;56.44;100871.69;10467658;28;20080;-65
2022/01/20 13:05:10;;;;;;;12.00;2.88;;;;;;;3.81;56.79;100875.19;10464840;28;20060;-65
2022/01/20 13:10:22;;;;;;;13.32;2.70;;;;;;;3.54;56.26;100889.44;10462761;28;20619;-65
2022/01/20 13:15:24;;;;;;;10.30;2.35;;;;;;;3.46;56.51;100880.09;10468367;28;20098;-65
2022/01/20 13:20:26;;;;;;;12.10;2.55;;;;;;;3.38;56.45;100871.59;10463021;28;20055;-65
2022/01/20 13:25:31;;;;;;;15.20;2.80;;;;;;;3.27;57.18;100889.03;10437867;28;20471;-65
2022/01/20 13:30:40;;;;;;;14.77;2.90;;;;;;;3.26;57.83;100895.06;10467606;28;20063;-65
2022/01/20 13:35:44;;;;;;;13.98;2.75;;;;;;;3.20;57.91;100913.25;10466865;28;20056;-65
2022/01/20 13:40:47;;;;;;;14.73;3.13;;;;;;;3.39;57.83;100910.38;10467266;28;20056;-65
2022/01/20 13:45:49;;;;;;;15.25;3.05;;;;;;;3.52;57.80;100906.72;10465082;28;20044;-65
2022/01/20 13:50:56;;;;;;;16.73;3.00;;;;;;;3.75;56.55;100890.84;10466321;28;20060;-65
2022/01/20 13:56:02;;;;;;;16.20;3.20;;;;;;;3.77;56.59;100870.97;10444157;28;20056;-65
2022/01/20 14:01:08;;;;;;;17.15;3.22;;;;;;;3.64;56.41;100864.31;10466436;28;20048;-65
2022/01/20 14:06:10;;;;;;;16.98;3.15;;;;;;;3.56;56.20;100877.34;10465658;28;21089;-65
2022/01/20 14:11:12;;;;;;;14.77;3.67;;;;;;;3.72;55.52;100872.78;10466185;28;20148;-65
2022/01/20 14:16:15;;;;;;;15.50;3.72;;;;;;;3.79;55.40;100880.41;10448867;28;20067;-64
2022/01/20 14:21:17;;;;;;;11.90;2.85;;;;;;;3.68;55.43;100884.06;10466053;28;20048;-65
2022/01/20 14:26:28;;;;;;;13.48;2.63;;;;;;;3.63;55.15;100888.44;10463215;28;20229;-65
2022/01/20 14:31:30;;;;;;;13.32;3.03;;;;;;;3.51;54.97;100888.66;10462881;28;20048;-65
2022/01/20 14:36:32;;;;;;;15.43;3.10;;;;;;;3.54;55.13;100875.66;10463159;28;20290;-64
2022/01/20 14:41:34;;;;;;;13.95;2.83;;;;;;;3.40;54.63;100896.56;10463885;28;20431;-65
2022/01/20 14:46:35;;;;;;;15.13;2.65;;;;;;;3.44;54.97;100889.59;10465089;28;20088;-63
2022/01/20 14:51:38;;;;;;;9.55;2.50;;;;;;;3.42;54.59;100894.81;10464045;28;20052;-65
2022/01/20 14:56:41;;;;;;;14.52;5.40;;;;;;;3.47;54.88;100903.38;10465114;28;20904;-65
2022/01/20 15:01:43;;;;;;;14.25;2.97;;;;;;;3.28;55.12;100911.41;10431407;28;20053;-64
2022/01/20 15:06:45;;;;;;;11.32;2.58;;;;;;;3.04;56.07;100925.53;10465844;28;20056;-65
2022/01/20 15:11:47;;;;;;;16.20;4.82;;;;;;;3.24;56.18;100917.50;10460399;28;20052;-64
2022/01/20 15:16:50;;;;;;;14.38;2.85;;;;;;;3.10;56.83;100911.66;10445950;28;20143;-64
2022/01/20 15:21:52;;;;;;;16.75;3.10;;;;;;;3.05;57.60;100920.34;10447748;28;20309;-65
2022/01/20 15:26:55;;;;;;;15.23;3.72;;;;;;;3.00;57.86;100921.28;10470673;28;20059;-66
2022/01/20 15:31:57;;;;;;;13.15;3.25;;;;;;;3.04;57.57;100923.81;10472704;28;20052;-65
2022/01/20 15:36:59;;;;;;;18.35;3.40;;;;;;;2.84;58.12;100919.78;10473740;28;20147;-65
2022/01/20 15:42:01;;;;;;;11.15;3.08;;;;;;;2.66;58.48;100933.75;10473146;28;20420;-66
2022/01/20 15:47:03;;;;;;;13.25;3.08;;;;;;;2.55;59.07;100937.34;10472906;28;20083;-65
2022/01/20 15:52:05;;;;;;;15.98;4.00;;;;;;;2.29;59.67;100940.22;10471394;28;20067;-65
2022/01/20 15:57:07;;;;;;;14.13;3.40;;;;;;;2.39;59.71;100952.16;10473538;28;20063;-65
2022/01/20 16:02:09;;;;;;;11.02;3.45;;;;;;;2.38;59.90;100953.00;10455301;28;20063;-65
2022/01/20 16:07:13;;;;;;;11.63;3.33;;;;;;;2.39;60.04;100962.47;10472803;28;20060;-65
2022/01/20 16:12:15;;;;;;;11.70;3.42;;;;;;;2.43;59.95;100966.72;10472372;28;20060;-65
2022/01/20 16:17:20;;;;;;;14.85;3.20;;;;;;;2.49;59.93;100981.28;10471921;28;20505;-65
2022/01/20 16:22:22;;;;;;;10.90;3.20;;;;;;;2.54;60.22;100988.13;10470886;28;20798;-64
2022/01/20 16:27:24;;;;;;;11.93;3.42;;;;;;;2.51;59.80;100998.50;10470025;28;20052;-63
2022/01/20 16:32:26;;;;;;;15.43;4.70;;;;;;;2.58;59.85;100987.22;10469869;28;20045;-67
2022/01/20 16:37:28;;;;;;;17.35;4.78;;;;;;;2.70;59.64;100987.06;10468108;28;20080;-66
2022/01/20 16:42:30;;;;;;;14.25;4.43;;;;;;;2.61;60.10;101002.69;10470629;28;20142;-66
2022/01/20 16:47:34;;;;;;;18.65;4.60;;;;;;;2.60;60.35;101006.13;10470463;28;20527;-66
2022/01/20 16:52:37;;;;;;;13.90;4.22;;;;;;;2.54;59.97;101007.94;10468138;28;20060;-66
2022/01/20 16:57:40;;;;;;;16.00;4.28;;;;;;;2.46;59.88;101032.97;10452719;28;20049;-66
2022/01/20 17:08:02;;;;;;;12.70;4.15;;;;;;;1.95;59.66;101036.84;10469528;28;20693;-66
2022/01/20 17:13:05;;;;;;;11.32;3.83;;;;;;;2.13;59.88;101029.78;10469516;28;20045;-66
2022/01/20 17:18:08;;;;;;;15.85;5.95;;;;;;;2.06;59.77;101035.03;10469157;28;20914;-66
2022/01/20 17:23:10;;;;;;;13.50;3.90;;;;;;;1.85;60.49;101043.78;10468658;28;20743;-66
2022/01/20 17:28:13;;;;;;;13.10;4.82;;;;;;;1.86;60.67;101044.63;10433987;28;20092;-66
2022/01/20 17:33:15;;;;;;;13.75;5.32;;;;;;;2.02;60.13;101035.91;10440760;28;20424;-66
2022/01/20 17:38:21;;;;;;;17.00;5.10;;;;;;;2.24;59.89;101034.88;10459831;28;20076;-67
2022/01/20 17:43:33;;;;;;;15.95;5.00;;;;;;;2.35;60.06;101021.88;10463735;28;20055;-67
2022/01/20 17:48:39;;;;;;;13.15;5.20;;;;;;;2.39;60.09;101006.34;10466241;28;20159;-67
2022/01/20 17:53:41;;;;;;;16.85;4.93;;;;;;;2.30;60.21;101029.66;10464380;28;20572;-67
2022/01/20 17:58:44;;;;;;;15.27;4.20;;;;;;;2.16;60.59;101044.41;10444666;28;20044;-66
2022/01/20 18:03:47;;;;;;;9.13;3.40;;;;;;;2.25;60.32;101034.03;10466132;28;20075;-66
2022/01/20 18:08:50;;;;;;;15.02;3.78;;;;;;;2.31;60.46;101039.13;10466122;28;20242;-66
2022/01/20 18:13:52;;;;;;;15.07;3.08;;;;;;;2.29;59.79;101048.63;10445498;28;20045;-66
2022/01/20 18:18:54;;;;;;;13.75;3.33;;;;;;;2.23;58.99;101053.81;10461945;28;20052;-66
2022/01/20 18:23:57;;;;;;;11.88;3.20;;;;;;;2.32;59.36;101058.91;10460761;28;20056;-66
2022/01/20 18:29:00;;;;;;;12.63;3.55;;;;;;;2.30;59.21;101049.47;10443783;28;20428;-66
2022/01/20 18:34:02;;;;;;;12.65;3.20;;;;;;;2.37;59.23;101062.31;10462962;28;20063;-66
2022/01/20 18:39:04;;;;;;;11.85;3.15;;;;;;;2.47;58.89;101074.25;10461534;28;20080;-66
2022/01/20 18:44:09;;;;;;;13.35;3.20;;;;;;;2.57;58.81;101075.03;10459319;28;20044;-66
2022/01/20 18:49:12;;;;;;;17.00;3.70;;;;;;;2.51;58.68;101078.53;10464151;28;20098;-66
2022/01/20 18:54:14;;;;;;;15.50;4.28;;;;;;;2.49;58.34;101082.84;10460224;28;20114;-66
2022/01/20 18:59:16;;;;;;;13.35;3.83;;;;;;;2.35;58.88;101065.75;10470785;28;20847;-66
2022/01/20 19:04:19;;;;;;;14.63;3.72;;;;;;;2.35;58.87;101058.88;10478799;28;20052;-66
2022/01/20 19:09:23;;;;;;;20.10;4.15;;;;;;;2.37;58.97;101058.88;10477947;28;20489;-66
2022/01/20 19:14:25;;;;;;;13.48;4.25;;;;;;;2.35;58.90;101048.56;10459575;28;20056;-66
2022/01/20 19:19:28;;;;;;;15.73;4.60;;;;;;;2.25;58.80;101066.72;10476953;28;20063;-66
2022/01/20 19:24:30;;;;;;;14.85;4.20;;;;;;;2.34;59.05;101077.81;10461250;28;20118;-66
2022/01/20 19:29:33;;;;;;;18.42;4.78;;;;;;;2.30;59.25;101083.03;10478797;28;20052;-66
2022/01/20 19:34:35;;;;;;;14.73;5.30;;;;;;;2.32;59.21;101089.88;10478233;28;20053;-66
2022/01/20 19:39:39;;;;;;;13.45;5.10;;;;;;;2.20;59.40;101087.38;10477895;28;20059;-66
2022/01/20 19:44:45;;;;;;;25.55;10.98;;;;;;;2.30;59.01;101103.69;10478767;28;20087;-66
2022/01/20 19:49:47;;;;;;;14.88;4.35;;;;;;;2.14;59.07;101116.69;10461148;28;20421;-66
2022/01/20 19:54:49;;;;;;;13.13;4.40;;;;;;;2.24;59.01;101109.72;10474818;28;20143;-66
2022/01/20 19:59:51;;;;;;;11.48;4.10;;;;;;;2.29;58.39;101128.63;10478092;28;20055;-66
2022/01/20 20:04:54;;;;;;;12.57;3.95;;;;;;;2.40;58.64;101133.72;10477237;28;20067;-66
2022/01/20 20:09:56;;;;;;;13.45;4.13;;;;;;;2.32;58.37;101126.00;10476323;28;20057;-66
2022/01/20 20:14:58;;;;;;;12.93;4.55;;;;;;;2.43;58.44;101133.69;10473099;28;20048;-66
2022/01/20 20:20:00;;;;;;;8.32;3.58;;;;;;;2.36;58.41;101125.13;10451592;28;20146;-66
2022/01/20 20:25:03;;;;;;;16.23;4.80;;;;;;;2.42;58.46;101148.31;10471292;28;20048;-66
2022/01/20 20:30:07;;;;;;;13.18;4.32;;;;;;;2.39;58.59;101137.16;10452480;28;20547;-66
2022/01/20 20:35:09;;;;;;;15.48;4.57;;;;;;;2.35;58.87;101138.91;10452611;28;20485;-66
2022/01/20 20:40:12;;;;;;;16.35;4.30;;;;;;;2.35;59.06;101145.78;10470890;28;20063;-66
2022/01/20 20:45:15;;;;;;;15.18;4.53;;;;;;;2.32;59.19;101151.81;10435460;28;20510;-66
2022/01/20 20:50:17;;;;;;;11.95;4.40;;;;;;;2.39;59.60;101155.22;10470069;28;20056;-66
2022/01/20 20:55:19;;;;;;;17.67;5.60;;;;;;;2.38;59.59;101158.69;10464933;28;20607;-66
2022/01/20 21:00:22;;;;;;;16.70;4.78;;;;;;;2.34;59.62;101160.41;10451549;28;20076;-66
2022/01/20 21:05:25;;;;;;;13.52;4.80;;;;;;;2.28;59.53;101181.09;10467647;28;20412;-66
2022/01/20 21:10:27;;;;;;;18.80;5.13;;;;;;;2.33;59.53;101178.50;10468036;28;20079;-66
2022/01/20 21:15:30;;;;;;;19.90;5.38;;;;;;;2.29;59.66;101193.16;10468133;28;20253;-66
2022/01/20 21:20:32;;;;;;;18.65;5.60;;;;;;;2.19;60.31;101201.81;10466791;28;20053;-67
2022/01/20 21:25:34;;;;;;;13.77;5.43;;;;;;;2.15;61.04;101205.28;10448963;28;20216;-67
2022/01/20 21:30:36;;;;;;;15.15;5.05;;;;;;;2.03;61.00;101203.59;10465813;28;20060;-67
2022/01/20 21:35:38;;;;;;;17.80;5.03;;;;;;;2.03;61.03;101215.66;10466613;28;20049;-67
2022/01/20 21:40:41;;;;;;;17.13;5.10;;;;;;;1.99;60.79;101237.19;10466810;28;20200;-67
2022/01/20 21:45:43;;;;;;;18.13;5.25;;;;;;;1.72;60.55;101239.84;10465406;28;20052;-67
2022/01/20 21:50:48;;;;;;;15.40;4.95;;;;;;;1.57;61.00;101240.75;10448270;28;20056;-67
2022/01/20 21:55:50;;;;;;;17.05;4.93;;;;;;;1.47;61.23;101239.06;10463691;28;21014;-68
2022/01/20 22:00:52;;;;;;;18.60;5.03;;;;;;;1.31;61.37;101238.25;10446750;28;20048;-67
2022/01/20 22:05:54;;;;;;;15.52;5.43;;;;;;;1.25;61.57;101235.66;10465106;28;20044;-67
2022/01/20 22:10:56;;;;;;;18.15;5.05;;;;;;;1.18;61.57;101244.25;10458879;28;20475;-67
2022/01/20 22:16:00;;;;;;;15.95;4.80;;;;;;;1.14;61.51;101257.13;10464785;28;20167;-67
2022/01/20 22:21:04;;;;;;;14.52;5.05;;;;;;;1.29;61.43;101264.88;10445064;28;20053;-67
2022/01/20 22:26:07;;;;;;;19.35;4.60;;;;;;;1.45;61.46;101251.09;10464451;28;20147;-67
2022/01/20 22:31:10;;;;;;;17.30;5.05;;;;;;;1.56;61.29;101258.81;10464204;28;20052;-67
2022/01/20 22:36:13;;;;;;;22.88;6.00;;;;;;;1.66;61.15;101258.78;10461600;28;20053;-67
2022/01/20 22:41:21;;;;;;;20.63;5.75;;;;;;;1.70;61.10;101272.53;10463641;28;20106;-67
2022/01/20 22:46:23;;;;;;;19.55;5.50;;;;;;;1.82;61.04;101267.34;10463872;28;20495;-67
2022/01/20 22:51:25;;;;;;;18.83;5.82;;;;;;;1.83;60.98;101279.34;10462951;28;20071;-67
2022/01/20 22:56:27;;;;;;;21.45;5.97;;;;;;;1.76;61.29;101283.69;10445539;28;20130;-67
2022/01/20 23:01:29;;;;;;;23.52;6.53;;;;;;;1.93;61.37;101291.38;10443738;28;20048;-67
2022/01/20 23:06:31;;;;;;;24.88;6.75;;;;;;;1.76;62.49;101303.47;10463264;28;20412;-67
2022/01/20 23:11:34;;;;;;;20.50;7.82;;;;;;;1.86;62.50;101310.31;10463177;28;20626;-68
2022/01/20 23:16:47;;;;;;;32.50;9.20;;;;;;;1.68;63.33;101316.38;10458385;28;20203;-67
2022/01/20 23:21:49;;;;;;;27.10;8.70;;;;;;;1.72;63.79;101310.34;10460175;28;20163;-66
2022/01/20 23:26:52;;;;;;;28.42;10.23;;;;;;;1.74;63.94;101306.06;10447182;28;20055;-67
2022/01/20 23:31:54;;;;;;;25.73;9.98;;;;;;;1.64;64.40;101318.97;10464278;28;20060;-67
2022/01/20 23:36:56;;;;;;;30.30;11.30;;;;;;;1.50;64.37;101312.97;10463914;28;20546;-66
2022/01/20 23:42:05;;;;;;;31.55;12.93;;;;;;;1.34;64.67;101300.06;10463865;28;21070;-67
2022/01/20 23:52:30;;;;;;;25.08;9.73;;;;;;;0.90;65.06;101306.94;10470205;28;20155;-67
2022/01/20 23:57:31;;;;;;;32.88;9.65;;;;;;;0.79;65.05;101308.63;10468784;28;20059;-66
